Time;durP1;ratioP1;P1;durP2;ratioP2;P2;SDS_P1;SDS_P2;PMS_P1;PMS_P2;Temp;Humidity;BMP_temperature;BMP_pressure;BME280_temperature;BME280_humidity;BME280_pressure;Samples;Min_cycle;Max_cycle;Signal;HPM_P1;HPM_P2
2022/05/16 00:00:19;;;;;;;5.40;1.67;;;;;;;8.88;99.19;101887.81;4851528;29;20069;-78
2022/05/16 00:02:45;;;;;;;4.07;1.63;;;;;;;8.74;99.36;101877.50;4864114;29;20041;-78
2022/05/16 00:05:11;;;;;;;5.90;1.60;;;;;;;8.70;100.00;101873.41;4873894;29;20036;-78
2022/05/16 00:07:36;;;;;;;3.85;1.40;;;;;;;8.73;100.00;101884.50;4858579;29;20037;-78
2022/05/16 00:10:03;;;;;;;4.82;1.60;;;;;;;8.67;100.00;101881.50;4857045;29;20096;-77
2022/05/16 00:12:29;;;;;;;9.05;1.98;;;;;;;8.71;100.00;101882.94;4852739;29;20041;-79
2022/05/16 00:14:55;;;;;;;5.20;1.65;;;;;;;8.81;100.00;101883.13;4838963;29;20052;-78
2022/05/16 00:17:21;;;;;;;4.75;1.75;;;;;;;8.80;100.00;101889.28;4860541;29;20519;-78
2022/05/16 00:19:46;;;;;;;5.97;1.77;;;;;;;8.80;100.00;101889.28;4856444;29;20065;-77
2022/05/16 00:22:12;;;;;;;4.07;1.65;;;;;;;8.79;100.00;101888.47;4871991;29;20069;-77
2022/05/16 00:24:42;;;;;;;4.57;1.75;;;;;;;8.80;100.00;101887.53;4854633;29;20378;-79
2022/05/16 00:27:08;;;;;;;4.00;1.90;;;;;;;8.73;100.00;101884.50;4856904;29;20493;-80
2022/05/16 00:29:34;;;;;;;4.57;1.60;;;;;;;8.73;100.00;101897.59;4843300;29;20064;-78
2022/05/16 00:32:00;;;;;;;7.63;2.63;;;;;;;8.71;100.00;101896.84;4858305;29;20069;-78
2022/05/16 00:34:27;;;;;;;6.30;1.80;;;;;;;8.63;100.00;101887.88;4848431;29;20056;-77
2022/05/16 00:36:54;;;;;;;4.07;1.88;;;;;;;8.58;100.00;101894.25;4859031;29;20045;-78
2022/05/16 00:39:21;;;;;;;4.40;1.58;;;;;;;8.57;100.00;101891.75;4853891;29;20040;-77
2022/05/16 00:41:50;;;;;;;4.03;1.60;;;;;;;8.55;100.00;101888.38;4867683;29;20065;-76
2022/05/16 00:44:17;;;;;;;4.45;1.80;;;;;;;8.51;100.00;101887.78;4840224;29;20041;-79
2022/05/16 00:46:43;;;;;;;5.40;1.95;;;;;;;8.46;100.00;101892.47;4876697;29;20116;-78
2022/05/16 00:49:15;;;;;;;4.28;1.80;;;;;;;8.46;100.00;101878.56;4869284;29;20041;-78
2022/05/16 00:51:47;;;;;;;5.57;1.98;;;;;;;8.36;100.00;101867.84;4842562;29;20112;-78
2022/05/16 00:54:19;;;;;;;4.93;1.85;;;;;;;8.39;100.00;101884.16;4850444;29;20041;-78
2022/05/16 00:56:46;;;;;;;4.85;1.73;;;;;;;8.42;100.00;101884.94;4833392;29;20044;-78
2022/05/16 00:59:12;;;;;;;5.22;1.90;;;;;;;8.43;100.00;101889.22;4850200;29;20456;-77
2022/05/16 01:07:10;;;;;;;5.57;1.90;;;;;;;8.33;100.00;101873.31;4856956;29;20378;-78
2022/05/16 01:09:35;;;;;;;7.45;2.05;;;;;;;8.31;100.00;101867.34;4841475;29;20151;-78
2022/05/16 01:12:02;;;;;;;7.43;2.08;;;;;;;8.22;100.00;101865.34;4845968;29;20098;-78
2022/05/16 01:14:49;;;;;;;5.43;1.95;;;;;;;8.24;100.00;101871.31;4831805;29;20129;-80
2022/05/16 01:17:14;;;;;;;8.73;2.17;;;;;;;8.19;100.00;101858.53;4852911;29;20041;-77
2022/05/16 01:19:41;;;;;;;9.15;1.95;;;;;;;8.13;100.00;101851.13;4853044;29;20041;-77
2022/05/16 01:22:21;;;;;;;6.50;2.13;;;;;;;8.16;100.00;101846.53;4856326;29;20030;-78
2022/05/16 01:24:47;;;;;;;6.68;2.40;;;;;;;8.14;100.00;101847.59;4853183;29;20049;-78
2022/05/16 01:27:13;;;;;;;10.35;2.97;;;;;;;8.14;100.00;101840.56;4839756;29;20089;-79
2022/05/16 01:29:39;;;;;;;6.85;2.20;;;;;;;8.09;100.00;101828.75;4856350;29;20046;-77
2022/05/16 01:32:05;;;;;;;9.27;2.58;;;;;;;8.17;100.00;101829.06;4854083;29;20065;-77
2022/05/16 01:34:30;;;;;;;7.20;2.45;;;;;;;8.17;100.00;101824.69;4855146;29;20064;-78
2022/05/16 01:36:56;;;;;;;5.70;2.20;;;;;;;8.20;100.00;101831.47;4873874;29;20033;-77
2022/05/16 01:39:21;;;;;;;7.57;2.60;;;;;;;8.18;100.00;101821.13;4856370;29;20447;-78
2022/05/16 01:41:47;;;;;;;7.10;2.38;;;;;;;8.20;100.00;101823.63;4857774;29;20033;-79
2022/05/16 01:44:13;;;;;;;7.32;2.17;;;;;;;8.16;100.00;101811.72;4854881;29;20049;-77
2022/05/16 01:46:40;;;;;;;6.85;2.58;;;;;;;8.25;100.00;101820.69;4871067;29;20532;-77
2022/05/16 01:49:09;;;;;;;4.05;2.30;;;;;;;8.23;100.00;101820.81;4855929;29;20048;-78
2022/05/16 01:51:35;;;;;;;8.02;2.50;;;;;;;8.20;100.00;101821.03;4853761;29;20482;-78
2022/05/16 01:54:03;;;;;;;7.40;2.53;;;;;;;8.18;100.00;101822.91;4865799;29;20040;-77
2022/05/16 01:56:34;;;;;;;9.70;3.00;;;;;;;8.19;100.00;101817.59;4841087;29;20136;-77
2022/05/16 01:59:01;;;;;;;8.40;2.60;;;;;;;8.11;100.00;101813.81;4838078;29;20706;-77
2022/05/16 02:01:27;;;;;;;8.23;2.40;;;;;;;8.10;100.00;101819.97;4838271;29;20111;-77
2022/05/16 02:03:53;;;;;;;11.68;2.97;;;;;;;8.04;100.00;101802.09;4857192;29;20041;-77
2022/05/16 02:06:19;;;;;;;6.75;2.53;;;;;;;8.05;100.00;101811.63;4854179;29;20105;-77
2022/05/16 02:08:45;;;;;;;9.50;2.70;;;;;;;8.04;100.00;101807.31;4863535;29;20041;-77
2022/05/16 02:11:10;;;;;;;8.18;2.70;;;;;;;8.01;100.00;101804.94;4847312;29;20683;-78
2022/05/16 02:13:40;;;;;;;8.57;2.95;;;;;;;8.00;100.00;101798.84;4854023;29;20100;-78
2022/05/16 02:16:06;;;;;;;7.78;2.47;;;;;;;7.97;100.00;101793.84;4855322;29;20034;-78
2022/05/16 02:18:32;;;;;;;7.85;2.33;;;;;;;7.90;100.00;101801.25;4855651;29;20073;-77
2022/05/16 02:26:29;;;;;;;8.32;2.70;;;;;;;7.84;100.00;101799.06;4836506;29;20065;-77
2022/05/16 02:28:54;;;;;;;9.32;2.50;;;;;;;7.82;100.00;101789.63;4851456;29;20493;-77
2022/05/16 02:31:20;;;;;;;9.80;2.60;;;;;;;7.80;100.00;101787.97;4854800;29;20045;-76
2022/05/16 02:33:47;;;;;;;9.80;3.05;;;;;;;7.74;100.00;101780.56;4865090;29;20411;-77
2022/05/16 02:36:12;;;;;;;9.95;2.80;;;;;;;7.78;100.00;101792.47;4857529;29;20741;-76
2022/05/16 02:38:38;;;;;;;5.53;2.35;;;;;;;7.73;100.00;101789.31;4836111;29;20040;-79
2022/05/16 02:41:04;;;;;;;6.07;2.50;;;;;;;7.68;100.00;101795.78;4846950;29;20429;-77
2022/05/16 02:43:29;;;;;;;5.68;2.65;;;;;;;7.64;100.00;101784.69;4856432;29;20723;-77
2022/05/16 02:45:55;;;;;;;5.88;2.47;;;;;;;7.62;100.00;101789.19;4861562;29;20403;-77
2022/05/16 02:48:21;;;;;;;6.95;2.40;;;;;;;7.52;100.00;101778.53;4856153;29;20389;-77
2022/05/16 02:50:46;;;;;;;7.00;2.33;;;;;;;7.55;100.00;101796.63;4850378;29;20040;-78
2022/05/16 02:53:12;;;;;;;7.55;2.60;;;;;;;7.51;100.00;101786.44;4854612;29;20092;-78
2022/05/16 02:55:37;;;;;;;8.93;2.45;;;;;;;7.53;100.00;101790.63;4837709;29;20073;-77
2022/05/16 02:58:06;;;;;;;5.53;2.40;;;;;;;7.58;100.00;101787.72;4849878;29;20029;-78
2022/05/16 03:00:32;;;;;;;7.47;2.33;;;;;;;7.53;100.00;101781.97;4866599;29;20109;-77
2022/05/16 03:02:57;;;;;;;5.65;2.22;;;;;;;7.54;100.00;101776.66;4857807;29;20037;-77
2022/05/16 03:05:23;;;;;;;8.52;2.58;;;;;;;7.57;100.00;101786.03;4873967;29;20432;-77
2022/05/16 03:07:49;;;;;;;5.80;2.20;;;;;;;7.53;100.00;101779.34;4865624;29;20054;-78
2022/05/16 03:10:15;;;;;;;7.22;3.00;;;;;;;7.54;100.00;101770.59;4857077;29;20072;-76
2022/05/16 03:12:43;;;;;;;7.70;2.33;;;;;;;7.56;100.00;101766.94;4848071;29;20048;-78
2022/05/16 03:15:09;;;;;;;8.45;2.40;;;;;;;7.59;100.00;101776.31;4854753;29;20052;-77
2022/05/16 03:17:35;;;;;;;11.65;2.97;;;;;;;7.56;100.00;101780.00;4858771;29;20033;-78
2022/05/16 03:20:02;;;;;;;8.23;2.45;;;;;;;7.55;100.00;101764.41;4841721;29;20044;-78
2022/05/16 03:22:27;;;;;;;7.53;2.60;;;;;;;7.57;100.00;101766.00;4857259;29;20049;-77
2022/05/16 03:24:53;;;;;;;8.77;2.80;;;;;;;7.67;100.00;101768.84;4859731;29;20049;-78
2022/05/16 03:27:19;;;;;;;6.35;2.53;;;;;;;7.74;100.00;101772.72;4863767;29;20060;-76
2022/05/16 03:29:46;;;;;;;5.57;2.50;;;;;;;7.77;100.00;101769.06;4858732;29;20100;-77
2022/05/16 03:32:11;;;;;;;8.70;2.83;;;;;;;7.76;100.00;101780.44;4842538;29;20079;-77
2022/05/16 03:34:37;;;;;;;10.35;2.72;;;;;;;7.84;100.00;101777.34;4858736;29;20496;-79
2022/05/16 03:37:03;;;;;;;7.88;2.47;;;;;;;7.88;100.00;101774.41;4841059;29;20038;-78
2022/05/16 03:42:13;;;;;;;9.65;2.70;;;;;;;8.07;100.00;101768.75;4856956;29;20500;-76
2022/05/16 03:44:38;;;;;;;5.90;2.13;;;;;;;8.06;100.00;101767.09;4854529;29;20037;-77
2022/05/16 03:47:04;;;;;;;6.00;2.67;;;;;;;8.08;100.00;101765.22;4874200;29;20516;-77
2022/05/16 03:49:30;;;;;;;6.32;2.22;;;;;;;8.05;100.00;101752.34;4840991;29;20044;-76
2022/05/16 03:51:56;;;;;;;7.40;2.10;;;;;;;8.08;100.00;101759.13;4854057;29;20112;-77
2022/05/16 03:54:22;;;;;;;6.45;2.50;;;;;;;8.11;100.00;101758.94;4857137;29;20637;-77
2022/05/16 03:56:47;;;;;;;10.15;2.72;;;;;;;8.21;100.00;101759.94;4858468;29;20041;-77
2022/05/16 03:59:13;;;;;;;7.18;2.53;;;;;;;8.22;100.00;101768.66;4861835;29;20041;-77
2022/05/16 04:01:39;;;;;;;10.57;2.55;;;;;;;8.37;100.00;101770.19;4859010;29;20117;-76
2022/05/16 04:04:06;;;;;;;9.82;2.70;;;;;;;8.45;100.00;101764.47;4860881;29;20061;-77
2022/05/16 04:06:34;;;;;;;8.25;2.55;;;;;;;8.44;100.00;101760.16;4855902;29;20106;-77
2022/05/16 04:09:00;;;;;;;8.43;2.80;;;;;;;8.46;100.00;101745.22;4846402;29;20109;-77
2022/05/16 04:11:26;;;;;;;6.38;2.67;;;;;;;8.55;100.00;101757.63;4855534;29;20041;-77
2022/05/16 04:13:52;;;;;;;7.07;2.55;;;;;;;8.59;100.00;101759.09;4851123;29;20045;-76
2022/05/16 04:16:17;;;;;;;9.02;2.70;;;;;;;8.61;100.00;101753.75;4855495;29;20049;-77
2022/05/16 04:18:46;;;;;;;9.52;2.92;;;;;;;8.66;100.00;101752.47;4859289;29;20041;-77
2022/05/16 04:21:12;;;;;;;7.75;2.60;;;;;;;8.82;100.00;101743.56;4871882;29;20057;-78
2022/05/16 04:23:38;;;;;;;7.20;2.90;;;;;;;8.92;100.00;101750.59;4843887;29;20043;-78
2022/05/16 04:26:03;;;;;;;10.45;2.90;;;;;;;8.92;100.00;101745.38;4857496;29;20037;-78
2022/05/16 04:28:29;;;;;;;5.15;2.28;;;;;;;9.01;100.00;101756.97;4842263;29;20104;-77
2022/05/16 04:30:54;;;;;;;10.23;2.60;;;;;;;8.99;100.00;101742.31;4840262;29;20041;-77
2022/05/16 04:33:21;;;;;;;9.60;3.00;;;;;;;9.18;100.00;101741.81;4863641;29;20041;-78
2022/05/16 04:35:46;;;;;;;9.50;3.03;;;;;;;9.31;100.00;101739.97;4866495;29;20500;-76
2022/05/16 04:38:12;;;;;;;7.35;2.60;;;;;;;9.39;100.00;101736.78;4853649;29;20120;-76
2022/05/16 04:42:40;;;;;;;14.45;2.80;;;;;;;9.58;100.00;101744.91;4857550;29;20113;-77
2022/05/16 04:43:23;;;;;;;9.30;3.03;;;;;;;9.81;100.00;101756.25;4853008;29;20669;-76
2022/05/16 04:45:49;;;;;;;12.35;2.70;;;;;;;9.90;100.00;101755.56;4860829;29;20081;-76
2022/05/16 04:48:15;;;;;;;6.13;2.45;;;;;;;10.04;100.00;101756.28;4863691;29;21553;-79
2022/05/16 04:50:40;;;;;;;10.50;2.60;;;;;;;10.16;100.00;101747.47;4860792;29;20033;-77
2022/05/16 04:53:06;;;;;;;6.35;2.50;;;;;;;10.34;100.00;101763.63;4855380;29;20181;-76
2022/05/16 04:55:32;;;;;;;5.65;2.50;;;;;;;10.51;100.00;101760.50;4850777;29;20954;-76
2022/05/16 04:57:58;;;;;;;8.20;2.35;;;;;;;10.57;100.00;101753.94;4853084;29;20045;-76
2022/05/16 05:00:25;;;;;;;9.57;2.50;;;;;;;10.86;98.25;101763.88;4837736;29;20422;-78
2022/05/16 05:02:52;;;;;;;9.32;2.38;;;;;;;10.87;97.61;101753.25;4866528;29;20041;-77
2022/05/16 05:05:18;;;;;;;7.15;2.60;;;;;;;10.96;98.09;101748.22;4861705;29;20044;-75
2022/05/16 05:07:45;;;;;;;9.98;2.72;;;;;;;11.10;97.10;101755.81;4858312;29;20034;-78
2022/05/16 05:15:43;;;;;;;8.48;2.85;;;;;;;11.53;96.17;101736.50;4854054;29;20038;-76
2022/05/16 05:18:08;;;;;;;7.80;2.03;;;;;;;11.59;95.24;101749.13;4867583;29;20048;-77
2022/05/16 05:20:34;;;;;;;6.32;2.20;;;;;;;11.64;92.74;101732.97;4861545;29;20744;-76
2022/05/16 05:23:02;;;;;;;10.98;2.90;;;;;;;11.73;92.11;101750.59;4854260;29;20508;-76
2022/05/16 05:25:28;;;;;;;7.22;2.33;;;;;;;11.81;92.79;101748.16;4852198;29;20037;-78
2022/05/16 05:27:54;;;;;;;6.07;2.00;;;;;;;11.84;92.37;101750.50;4855340;29;20420;-77
2022/05/16 05:30:22;;;;;;;12.73;2.67;;;;;;;11.93;92.04;101748.94;4839269;29;20135;-78
2022/05/16 05:32:48;;;;;;;8.25;2.10;;;;;;;12.08;91.76;101737.09;4856076;29;20046;-79
2022/05/16 05:35:14;;;;;;;6.53;2.33;;;;;;;12.23;90.26;101734.13;4850653;29;20126;-78
2022/05/16 05:37:40;;;;;;;5.40;2.20;;;;;;;12.27;89.22;101725.81;4856582;29;20041;-78
2022/05/16 05:40:07;;;;;;;8.40;2.40;;;;;;;12.48;88.08;101738.06;4831532;29;20042;-76
2022/05/16 05:42:34;;;;;;;6.97;2.53;;;;;;;12.46;88.51;101740.84;4837974;29;20042;-79
2022/05/16 05:45:02;;;;;;;9.23;2.20;;;;;;;12.50;87.90;101736.13;4837347;29;20080;-77
2022/05/16 05:47:27;;;;;;;5.05;2.10;;;;;;;12.60;88.11;101729.09;4838085;29;20493;-78
2022/05/16 05:49:53;;;;;;;9.13;2.38;;;;;;;12.69;88.09;101731.88;4856342;29;20071;-77
2022/05/16 05:52:19;;;;;;;7.35;2.55;;;;;;;12.83;86.53;101734.94;4857074;29;20048;-78
2022/05/16 05:54:46;;;;;;;6.45;2.22;;;;;;;12.85;86.31;101725.13;4840752;29;20421;-77
2022/05/16 05:57:13;;;;;;;7.93;2.13;;;;;;;12.92;87.23;101727.19;4855211;29;20073;-77
2022/05/16 05:59:39;;;;;;;14.60;3.13;;;;;;;13.14;86.04;101737.44;4872543;29;20768;-78
2022/05/16 06:02:07;;;;;;;11.20;2.65;;;;;;;13.20;84.69;101738.69;4858578;29;20124;-77
2022/05/16 06:04:33;;;;;;;8.82;2.45;;;;;;;13.19;84.93;101743.16;4841318;29;20052;-77
2022/05/16 06:07:00;;;;;;;12.68;2.40;;;;;;;13.21;85.11;101741.19;4856497;29;20083;-77
2022/05/16 06:09:26;;;;;;;9.35;2.35;;;;;;;13.29;85.92;101739.69;4853902;29;20062;-79
2022/05/16 06:11:53;;;;;;;10.27;2.45;;;;;;;13.32;84.04;101731.53;4827900;29;20050;-79
2022/05/16 06:14:18;;;;;;;8.18;2.13;;;;;;;13.47;86.60;101735.41;4851719;29;20590;-77
2022/05/16 06:16:44;;;;;;;8.05;1.88;;;;;;;13.52;83.29;101741.06;4830761;29;20045;-76
2022/05/16 06:19:09;;;;;;;10.27;2.30;;;;;;;13.54;83.56;101725.94;4852538;29;20061;-77
2022/05/16 06:21:36;;;;;;;7.75;2.20;;;;;;;13.61;83.32;101734.09;4855120;29;20416;-79
2022/05/16 06:24:02;;;;;;;10.10;2.50;;;;;;;13.70;85.23;101729.78;4854387;29;20076;-77
2022/05/16 06:26:28;;;;;;;9.98;2.75;;;;;;;13.86;84.94;101729.19;4836519;29;20413;-77
2022/05/16 06:28:55;;;;;;;7.43;2.55;;;;;;;14.04;83.04;101724.81;4849955;29;20045;-77
2022/05/16 06:31:21;;;;;;;7.93;2.50;;;;;;;14.07;80.58;101721.91;4855130;29;20041;-75
2022/05/16 06:33:47;;;;;;;10.13;2.47;;;;;;;14.16;81.92;101736.00;4861842;29;20033;-76
2022/05/16 06:36:13;;;;;;;6.65;2.00;;;;;;;14.32;82.84;101738.03;4854541;29;20113;-77
2022/05/16 06:38:39;;;;;;;6.55;2.35;;;;;;;14.45;81.39;101732.38;4854165;29;20050;-78
2022/05/16 06:41:05;;;;;;;5.43;2.38;;;;;;;14.55;79.52;101735.81;4850831;29;20071;-78
2022/05/16 06:43:32;;;;;;;8.60;2.40;;;;;;;14.66;78.40;101738.28;4848684;29;20066;-78
2022/05/16 06:45:58;;;;;;;9.95;2.17;;;;;;;14.73;80.42;101736.69;4831046;29;20045;-78
2022/05/16 06:48:24;;;;;;;7.28;2.42;;;;;;;14.64;79.31;101740.22;4848048;29;20073;-77
2022/05/16 06:50:51;;;;;;;10.07;2.42;;;;;;;14.86;78.52;101731.06;4856472;29;20061;-77
2022/05/16 06:53:29;;;;;;;8.10;2.53;;;;;;;15.03;78.04;101724.13;4859509;29;20037;-76
2022/05/16 06:55:56;;;;;;;8.13;2.28;;;;;;;15.23;78.71;101735.31;4825471;29;20117;-77
2022/05/16 06:58:23;;;;;;;9.13;2.28;;;;;;;15.44;77.10;101723.59;4839536;29;20103;-78
2022/05/16 07:00:49;;;;;;;8.63;2.30;;;;;;;15.65;77.06;101732.00;4862140;29;20049;-77
2022/05/16 07:03:14;;;;;;;10.13;2.63;;;;;;;15.83;74.27;101731.97;4858150;29;20048;-77
2022/05/16 07:05:40;;;;;;;13.57;2.65;;;;;;;16.01;74.41;101737.19;4858052;29;20507;-77
2022/05/16 07:08:06;;;;;;;8.90;2.55;;;;;;;16.18;73.27;101739.91;4862912;29;20036;-77
2022/05/16 07:10:32;;;;;;;6.50;2.10;;;;;;;16.27;73.53;101737.13;4844995;29;20385;-78
2022/05/16 07:12:59;;;;;;;8.93;2.03;;;;;;;16.51;73.62;101736.38;4859473;29;20044;-77
2022/05/16 07:15:25;;;;;;;6.97;2.15;;;;;;;16.59;72.86;101740.88;4862861;29;20056;-77
2022/05/16 07:17:50;;;;;;;7.00;2.17;;;;;;;16.72;70.42;101749.16;4841994;29;20132;-77
2022/05/16 07:20:18;;;;;;;7.38;2.30;;;;;;;16.67;70.83;101745.34;4842003;29;20420;-76
2022/05/16 07:22:45;;;;;;;5.03;2.17;;;;;;;16.77;71.00;101738.09;4868943;29;20102;-76
2022/05/16 07:25:16;;;;;;;7.40;1.90;;;;;;;17.02;70.36;101738.97;4843676;29;20041;-78
2022/05/16 07:27:57;;;;;;;7.93;2.33;;;;;;;17.13;68.35;101746.59;4852816;29;20080;-77
2022/05/16 07:30:25;;;;;;;8.35;2.03;;;;;;;17.04;69.08;101754.72;4858921;29;20125;-77
2022/05/16 07:32:52;;;;;;;4.18;1.83;;;;;;;16.80;68.83;101747.53;4870495;29;20030;-77
2022/05/16 07:35:25;;;;;;;5.35;1.85;;;;;;;16.72;68.23;101751.81;4841802;29;20128;-78
2022/05/16 07:37:53;;;;;;;7.32;2.28;;;;;;;16.63;70.66;101739.56;4860102;29;20120;-77
2022/05/16 07:40:25;;;;;;;8.02;2.20;;;;;;;16.75;70.35;101737.44;4854945;29;20056;-77
2022/05/16 07:42:52;;;;;;;6.63;2.30;;;;;;;16.81;72.08;101731.47;4847085;29;20536;-76
2022/05/16 07:45:18;;;;;;;6.43;1.98;;;;;;;16.89;70.95;101744.75;4841044;29;20697;-78
2022/05/16 07:47:44;;;;;;;4.85;2.03;;;;;;;17.03;68.58;101748.59;4864371;29;20138;-79
2022/05/16 07:50:10;;;;;;;6.40;2.00;;;;;;;17.12;71.06;101738.81;4864049;29;20141;-78
2022/05/16 07:52:36;;;;;;;6.97;2.05;;;;;;;17.29;70.78;101735.19;4864131;29;20037;-78
2022/05/16 07:55:03;;;;;;;10.82;2.17;;;;;;;17.30;69.18;101736.00;4855315;29;20049;-77
2022/05/16 07:57:30;;;;;;;8.15;1.80;;;;;;;17.78;69.90;101741.41;4865982;29;20062;-78
2022/05/16 07:59:56;;;;;;;4.68;2.00;;;;;;;18.19;64.37;101728.84;4861751;29;20041;-77
2022/05/16 08:02:22;;;;;;;7.65;2.17;;;;;;;17.94;65.53;101719.34;4842838;29;20440;-77
2022/05/16 08:04:48;;;;;;;8.35;2.08;;;;;;;18.21;66.77;101718.06;4852649;29;20494;-76
2022/05/16 08:07:14;;;;;;;5.03;2.05;;;;;;;18.44;66.01;101720.75;4863836;29;20049;-78
2022/05/16 08:12:33;;;;;;;9.25;1.77;;;;;;;18.76;61.33;101725.06;4851653;29;20049;-77
2022/05/16 08:15:00;;;;;;;7.80;1.95;;;;;;;18.89;63.34;101731.63;4843718;29;20038;-77
2022/05/16 08:17:26;;;;;;;4.88;1.83;;;;;;;19.04;64.30;101730.69;4856840;29;20111;-79
2022/05/16 08:19:51;;;;;;;4.82;2.00;;;;;;;19.06;61.99;101731.34;4841487;29;20128;-77
2022/05/16 08:22:17;;;;;;;5.97;2.30;;;;;;;19.18;60.97;101728.25;4868661;29;20128;-78
2022/05/16 08:24:45;;;;;;;5.72;2.33;;;;;;;19.17;60.92;101721.28;4859492;29;20058;-77
2022/05/16 08:27:10;;;;;;;4.60;2.10;;;;;;;19.25;60.01;101726.53;4858439;29;20037;-78
2022/05/16 08:29:36;;;;;;;4.75;1.80;;;;;;;19.31;62.46;101709.00;4858640;29;20070;-78
2022/05/16 08:32:03;;;;;;;8.30;1.83;;;;;;;19.43;60.53;101712.91;4841946;29;20073;-77
2022/05/16 08:34:29;;;;;;;8.32;2.15;;;;;;;19.51;61.33;101710.13;4852187;29;20046;-78
2022/05/16 08:39:52;;;;;;;5.88;2.03;;;;;;;19.89;59.75;101717.25;4851323;29;20042;-77
2022/05/16 08:42:23;;;;;;;6.38;2.10;;;;;;;20.10;56.26;101720.00;4828858;29;20056;-78
2022/05/16 08:45:01;;;;;;;6.75;1.42;;;;;;;20.07;57.17;101703.56;4868307;29;20041;-78
2022/05/16 08:48:14;;;;;;;4.93;1.60;;;;;;;19.51;58.76;101717.31;4855974;29;20049;-76
2022/05/16 08:50:52;;;;;;;6.82;1.77;;;;;;;19.34;58.64;101714.78;4848540;29;20053;-79
2022/05/16 08:53:25;;;;;;;6.82;1.60;;;;;;;19.20;59.80;101710.28;4856368;29;20097;-79
2022/05/16 08:55:55;;;;;;;10.85;1.95;;;;;;;19.08;60.42;101703.72;4850254;29;20053;-77
2022/05/16 08:58:35;;;;;;;6.15;1.80;;;;;;;19.01;58.74;101703.63;4850782;29;20041;-78
2022/05/16 09:01:07;;;;;;;5.97;1.63;;;;;;;19.22;61.85;101709.09;4854532;29;20038;-77
2022/05/16 09:03:43;;;;;;;;;;;;;;;19.64;60.18;101702.34;4840841;29;20069;-78
2022/05/16 09:06:26;;;;;;;4.65;1.70;;;;;;;19.70;58.08;101708.78;4856445;29;20311;-79
2022/05/16 09:09:12;;;;;;;7.22;1.88;;;;;;;19.84;61.40;101699.19;4857526;29;20033;-81
2022/05/16 09:12:00;;;;;;;5.22;1.83;;;;;;;20.14;56.09;101702.63;4853186;29;20034;-77
2022/05/16 09:15:04;;;;;;;10.02;1.70;;;;;;;20.52;59.13;101699.78;4860899;29;20485;-77
2022/05/16 09:17:55;;;;;;;7.47;1.67;;;;;;;20.84;56.03;101710.16;4882195;29;20081;-78
2022/05/16 09:20:30;;;;;;;9.70;1.92;;;;;;;21.02;54.60;101709.69;4857224;29;20505;-77
2022/05/16 09:23:08;;;;;;;6.63;1.80;;;;;;;20.67;53.51;101691.75;4864496;29;20136;-79
2022/05/16 09:25:55;;;;;;;10.80;1.92;;;;;;;20.46;54.85;101686.41;4852861;29;20037;-78
2022/05/16 09:28:37;;;;;;;6.82;1.92;;;;;;;20.65;54.13;101700.97;4852100;29;20416;-77
2022/05/16 09:31:26;;;;;;;6.15;1.75;;;;;;;20.82;53.51;101701.53;4860175;29;20483;-76
2022/05/16 09:34:00;;;;;;;7.18;1.88;;;;;;;20.97;54.81;101699.63;4845835;29;20042;-78
2022/05/16 09:36:37;;;;;;;4.18;1.50;;;;;;;21.42;54.07;101697.50;4856943;29;20042;-78
2022/05/16 09:39:04;;;;;;;2.60;1.33;;;;;;;21.60;51.99;101697.00;4847926;29;20045;-77
2022/05/16 09:41:33;;;;;;;4.50;1.80;;;;;;;21.51;49.57;101704.38;4838357;29;20505;-79
2022/05/16 09:44:29;;;;;;;7.68;1.65;;;;;;;21.41;49.29;101698.50;4839923;29;20057;-80
2022/05/16 09:47:16;;;;;;;4.80;1.83;;;;;;;21.80;49.83;101685.63;4842690;29;20420;-77
2022/05/16 09:49:41;;;;;;;5.97;1.73;;;;;;;21.89;48.21;101677.25;4868776;29;20730;-77
2022/05/16 09:52:15;;;;;;;4.88;1.40;;;;;;;21.94;48.08;101684.66;4850796;29;20042;-81
2022/05/16 09:54:41;;;;;;;8.40;2.13;;;;;;;22.01;47.43;101680.16;4848766;29;20076;-79
2022/05/16 09:57:16;;;;;;;6.80;1.67;;;;;;;22.31;47.39;101679.88;4853548;29;20065;-79
2022/05/16 09:59:51;;;;;;;6.82;1.27;;;;;;;22.30;48.20;101668.38;4848852;29;20764;-80
2022/05/16 10:02:27;;;;;;;6.75;1.55;;;;;;;22.53;48.75;101670.69;4825864;29;20073;-78
2022/05/16 10:05:00;;;;;;;4.25;1.10;;;;;;;22.95;44.83;101670.50;4839826;29;20065;-78
2022/05/16 10:07:59;;;;;;;8.68;1.63;;;;;;;22.72;43.73;101673.59;4867923;29;20512;-78
2022/05/16 10:10:30;;;;;;;5.07;1.60;;;;;;;22.47;44.98;101674.19;4858558;29;20049;-77
2022/05/16 10:12:57;;;;;;;6.35;1.70;;;;;;;22.48;45.61;101661.63;4834846;29;20042;-78
2022/05/16 10:15:23;;;;;;;7.60;1.52;;;;;;;22.80;45.87;101665.34;4843450;29;20046;-77
2022/05/16 10:17:52;;;;;;;6.90;1.50;;;;;;;22.87;45.02;101668.84;4851252;29;20564;-79
2022/05/16 10:20:23;;;;;;;7.40;1.50;;;;;;;22.85;45.16;101664.72;4841385;29;20037;-78
2022/05/16 10:22:55;;;;;;;4.30;1.48;;;;;;;22.83;44.35;101661.44;4859039;29;20033;-76
2022/05/16 10:25:27;;;;;;;2.97;1.17;;;;;;;22.86;43.59;101659.16;4837365;29;20045;-78
2022/05/16 10:27:54;;;;;;;;;;;;;;;23.06;44.39;101656.53;4839663;29;20030;-79
2022/05/16 10:30:25;;;;;;;8.65;1.40;;;;;;;23.50;44.16;101663.03;4876257;29;19916;-78
2022/05/16 10:35:52;;;;;;;7.53;1.30;;;;;;;23.39;42.11;101657.50;4859861;29;20177;-78
2022/05/16 10:38:36;;;;;;;6.47;1.50;;;;;;;23.38;44.04;101651.34;4864928;29;20501;-79
2022/05/16 10:41:07;;;;;;;2.97;1.67;;;;;;;23.80;44.33;101642.97;4836510;29;20053;-80
2022/05/16 10:43:32;;;;;;;6.95;1.90;;;;;;;24.13;44.53;101642.81;4855208;29;20033;-80
2022/05/16 10:46:09;;;;;;;3.45;1.38;;;;;;;24.20;42.02;101653.50;4849955;29;20029;-79
2022/05/16 10:48:47;;;;;;;3.17;1.25;;;;;;;24.17;41.17;101659.31;4861903;29;20049;-81
2022/05/16 10:51:23;;;;;;;4.68;1.65;;;;;;;24.10;40.26;101653.97;4855861;29;20052;-78
2022/05/16 10:54:04;;;;;;;4.97;1.40;;;;;;;23.86;40.81;101656.34;4857429;29;20049;-79
2022/05/16 10:56:55;;;;;;;5.07;1.70;;;;;;;23.90;41.89;101646.00;4838386;29;20046;-77
2022/05/16 10:59:59;;;;;;;4.40;1.40;;;;;;;24.50;42.52;101648.34;4853451;29;20292;-82
2022/05/16 11:02:38;;;;;;;2.67;1.08;;;;;;;24.16;38.97;101654.97;4853255;29;20041;-82
2022/05/16 11:05:15;;;;;;;6.53;1.35;;;;;;;23.97;40.70;101649.50;4839754;29;20040;-81
2022/05/16 11:08:09;;;;;;;10.77;1.40;;;;;;;24.19;40.16;101643.81;4850991;29;20034;-79
2022/05/16 11:10:43;;;;;;;7.57;1.70;;;;;;;24.33;40.06;101636.50;4844665;29;20073;-79
2022/05/16 11:13:35;;;;;;;4.93;1.60;;;;;;;24.48;39.55;101640.50;4836131;29;20073;-78
2022/05/16 11:16:21;;;;;;;5.47;1.73;;;;;;;24.27;40.35;101627.47;4868280;29;20038;-78
2022/05/16 11:19:00;;;;;;;8.55;1.30;;;;;;;24.05;39.01;101621.63;4850205;29;20043;-81
2022/05/16 11:21:44;;;;;;;3.35;1.30;;;;;;;24.34;40.44;101622.91;4854428;29;20062;-79
2022/05/16 11:24:42;;;;;;;3.85;1.27;;;;;;;24.05;40.53;101611.75;4841357;29;20409;-79
2022/05/16 11:27:23;;;;;;;4.07;1.38;;;;;;;24.16;39.65;101612.91;4852030;29;20061;-79
2022/05/16 11:29:49;;;;;;;5.38;1.30;;;;;;;24.23;40.11;101611.00;4863597;29;20045;-77
2022/05/16 11:32:30;;;;;;;2.55;1.25;;;;;;;24.23;39.29;101602.97;4861919;29;20491;-77
2022/05/16 11:35:05;;;;;;;3.30;1.52;;;;;;;24.22;39.51;101589.78;4859471;29;20041;-78
2022/05/16 11:38:04;;;;;;;5.60;1.45;;;;;;;24.51;40.32;101604.41;4855101;29;20048;-78
2022/05/16 11:40:57;;;;;;;8.52;2.03;;;;;;;24.31;39.43;101583.09;4839320;29;20045;-75
2022/05/16 11:43:31;;;;;;;3.10;1.50;;;;;;;24.36;39.01;101591.31;4843337;29;20814;-76
2022/05/16 11:46:28;;;;;;;5.90;1.40;;;;;;;24.26;39.44;101582.94;4838403;29;20033;-76
2022/05/16 11:49:12;;;;;;;8.73;1.88;;;;;;;24.04;40.33;101585.97;4854745;29;20120;-77
2022/05/16 11:51:48;;;;;;;4.65;1.35;;;;;;;24.28;40.71;101594.28;4856319;29;20041;-78
2022/05/16 11:54:20;;;;;;;5.50;1.60;;;;;;;24.18;40.34;101589.38;4855350;29;20125;-78
2022/05/16 12:02:20;;;;;;;3.47;1.45;;;;;;;24.56;39.17;101601.09;4859818;29;20564;-78
2022/05/16 12:04:52;;;;;;;3.92;1.35;;;;;;;24.61;39.89;101598.59;4863607;29;20117;-76
2022/05/16 12:07:21;;;;;;;4.57;1.80;;;;;;;24.90;38.65;101597.06;4845727;29;20029;-78
2022/05/16 12:09:57;;;;;;;9.60;1.70;;;;;;;25.13;38.88;101598.28;4850380;29;20041;-77